createdAt,value
2019-05-09T00:01:04.002Z,96.38
2019-05-09T00:03:33.609Z,96.48
2019-05-09T00:06:04.606Z,96.74
2019-05-09T00:08:33.656Z,97.09
2019-05-09T00:11:03.682Z,97.74
2019-05-09T00:13:34.100Z,98.77
2019-05-09T00:16:03.806Z,99.26
2019-05-09T00:18:33.717Z,99.69
2019-05-09T00:21:13.338Z,99.81
2019-05-09T00:23:43.734Z,99.83
2019-05-09T00:26:13.518Z,100.00
2019-05-09T00:28:46.103Z,100.00
2019-05-09T00:31:30.013Z,100.00
2019-05-09T00:34:04.202Z,100.00
2019-05-09T00:36:33.483Z,100.00
2019-05-09T00:39:04.123Z,100.00
2019-05-09T00:41:33.470Z,99.96
2019-05-09T00:44:09.235Z,99.94
2019-05-09T00:46:48.876Z,100.00
2019-05-09T00:49:23.425Z,100.00
2019-05-09T00:51:54.057Z,100.00
2019-05-09T00:54:24.041Z,100.00
2019-05-09T00:56:54.028Z,100.00
2019-05-09T00:59:24.141Z,100.00
2019-05-09T01:01:54.313Z,100.00
2019-05-09T01:04:24.235Z,100.00
2019-05-09T01:06:54.119Z,100.00
2019-05-09T01:09:24.149Z,100.00
2019-05-09T01:11:53.788Z,100.00
2019-05-09T01:14:23.608Z,100.00
2019-05-09T01:16:53.604Z,100.00
2019-05-09T01:19:23.440Z,100.00
2019-05-09T01:21:54.212Z,100.00
2019-05-09T01:24:23.713Z,100.00
2019-05-09T01:26:54.241Z,100.00
2019-05-09T01:29:23.570Z,100.00
2019-05-09T01:31:54.940Z,100.00
2019-05-09T01:34:28.136Z,100.00
2019-05-09T01:37:07.624Z,100.00
2019-05-09T01:39:37.814Z,100.00
2019-05-09T01:42:07.170Z,100.00
2019-05-09T01:44:36.516Z,100.00
2019-05-09T01:47:05.990Z,100.00
2019-05-09T01:49:35.267Z,100.00
2019-05-09T01:52:04.475Z,100.00
2019-05-09T01:54:35.991Z,100.00
2019-05-09T01:57:05.159Z,100.00
2019-05-09T01:59:34.400Z,100.00
2019-05-09T02:02:08.266Z,100.00
2019-05-09T02:04:34.798Z,100.00
2019-05-09T02:07:04.435Z,100.00
2019-05-09T02:09:34.382Z,100.00
2019-05-09T02:12:04.239Z,100.00
2019-05-09T02:14:51.601Z,100.00
2019-05-09T02:17:29.695Z,100.00
2019-05-09T02:19:58.861Z,100.00
2019-05-09T02:22:34.719Z,100.00
2019-05-09T02:25:06.125Z,100.00
2019-05-09T02:27:35.261Z,100.00
2019-05-09T02:30:06.052Z,100.00
2019-05-09T02:32:35.744Z,100.00
2019-05-09T02:35:05.850Z,100.00
2019-05-09T02:37:38.541Z,100.00
2019-05-09T02:40:09.693Z,100.00
2019-05-09T02:42:39.691Z,100.00
2019-05-09T02:45:09.898Z,100.00
2019-05-09T02:47:39.090Z,100.00
2019-05-09T02:50:09.801Z,100.00
2019-05-09T02:52:39.761Z,100.00
2019-05-09T02:55:10.740Z,100.00
2019-05-09T02:57:40.109Z,99.83
2019-05-09T03:00:28.919Z,99.49
2019-05-09T03:03:19.879Z,99.36
2019-05-09T03:05:48.862Z,99.17
2019-05-09T03:08:19.418Z,99.01
2019-05-09T03:10:49.241Z,98.90
2019-05-09T03:13:19.207Z,99.13
2019-05-09T03:15:50.249Z,99.55
2019-05-09T03:18:19.399Z,99.45
2019-05-09T03:21:10.283Z,99.09
2019-05-09T03:23:39.463Z,99.15
2019-05-09T03:26:10.341Z,99.43
2019-05-09T03:28:49.687Z,99.71
2019-05-09T03:31:20.106Z,100.00
2019-05-09T03:33:50.276Z,100.00
2019-05-09T03:36:19.680Z,100.00
2019-05-09T03:38:48.839Z,100.00
2019-05-09T03:41:18.056Z,100.00
2019-05-09T03:43:48.266Z,100.00
2019-05-09T03:46:48.516Z,100.00
2019-05-09T03:49:18.270Z,100.00
2019-05-09T03:51:48.238Z,100.00
2019-05-09T03:54:18.376Z,100.00
2019-05-09T03:56:52.824Z,100.00
2019-05-09T03:59:22.000Z,100.00
2019-05-09T04:01:51.191Z,100.00
2019-05-09T04:04:20.500Z,100.00
2019-05-09T04:06:49.677Z,100.00
2019-05-09T04:09:18.832Z,100.00
2019-05-09T04:11:48.631Z,100.00
2019-05-09T04:14:21.765Z,100.00
2019-05-09T04:16:51.063Z,100.00
2019-05-09T04:19:20.414Z,100.00
2019-05-09T04:21:49.788Z,99.78
2019-05-09T04:24:19.061Z,100.00
2019-05-09T04:26:57.576Z,99.71
2019-05-09T04:29:28.540Z,99.48
2019-05-09T04:31:58.269Z,99.68
2019-05-09T04:34:27.728Z,99.96
2019-05-09T04:37:03.689Z,99.60
2019-05-09T04:39:33.178Z,98.75
2019-05-09T04:42:05.427Z,99.25
2019-05-09T04:44:42.165Z,99.31
2019-05-09T04:47:11.670Z,100.00
2019-05-09T04:49:45.116Z,100.00
2019-05-09T04:52:12.208Z,100.00
2019-05-09T04:54:41.575Z,100.00
2019-05-09T04:57:10.915Z,100.00
2019-05-09T04:59:40.228Z,100.00
2019-05-09T05:02:34.366Z,100.00
2019-05-09T05:05:03.927Z,100.00
2019-05-09T05:07:33.428Z,100.00
2019-05-09T05:10:02.881Z,100.00
2019-05-09T05:12:32.081Z,99.81
2019-05-09T05:15:01.487Z,99.60
2019-05-09T05:17:30.914Z,98.82
2019-05-09T05:20:01.251Z,98.24
2019-05-09T05:22:38.685Z,98.33
2019-05-09T05:25:09.289Z,97.76
2019-05-09T05:27:39.051Z,96.87
2019-05-09T05:30:09.040Z,97.28
2019-05-09T05:33:00.579Z,96.71
2019-05-09T05:35:37.578Z,95.20
2019-05-09T05:38:08.529Z,94.19
2019-05-09T05:40:45.195Z,93.05
2019-05-09T05:43:09.453Z,88.80
2019-05-09T05:45:47.918Z,82.92
2019-05-09T05:48:21.485Z,82.21
2019-05-09T05:50:50.857Z,84.84
2019-05-09T05:53:20.569Z,89.35
2019-05-09T05:55:52.646Z,92.67
2019-05-09T05:58:21.019Z,93.83
2019-05-09T06:00:50.261Z,92.74
2019-05-09T06:03:19.575Z,91.17
2019-05-09T06:05:51.614Z,91.47
2019-05-09T06:08:19.901Z,92.46
2019-05-09T06:10:49.239Z,91.24
2019-05-09T06:13:18.500Z,90.08
2019-05-09T06:15:48.217Z,89.54
2019-05-09T06:18:18.464Z,88.28
2019-05-09T06:20:48.594Z,89.25
2019-05-09T06:23:18.552Z,90.88
2019-05-09T06:25:48.592Z,91.78
2019-05-09T06:28:18.370Z,91.27
2019-05-09T06:30:47.877Z,92.83
2019-05-09T06:33:18.075Z,94.29
2019-05-09T06:35:48.167Z,93.03
2019-05-09T06:38:18.689Z,93.30
2019-05-09T06:40:48.336Z,93.92
2019-05-09T06:43:19.378Z,95.15
2019-05-09T06:46:08.112Z,93.91
2019-05-09T06:48:37.826Z,93.32
2019-05-09T06:51:07.495Z,91.70
2019-05-09T06:53:38.003Z,90.62
2019-05-09T06:56:07.749Z,91.35
2019-05-09T06:58:38.412Z,91.97
2019-05-09T07:01:14.879Z,91.65
2019-05-09T07:03:44.653Z,90.55
2019-05-09T07:06:24.994Z,88.72
2019-05-09T07:09:13.204Z,88.80
2019-05-09T07:11:42.681Z,86.28
2019-05-09T07:14:38.262Z,85.18
2019-05-09T07:17:08.231Z,82.08
2019-05-09T07:19:38.287Z,75.92
2019-05-09T07:22:35.814Z,67.33
2019-05-09T07:25:12.039Z,72.89
2019-05-09T07:27:41.457Z,76.01
2019-05-09T07:30:25.380Z,76.91
2019-05-09T07:33:01.371Z,81.30
2019-05-09T07:35:30.908Z,80.42
2019-05-09T07:38:00.204Z,81.24
2019-05-09T07:40:30.723Z,84.73
2019-05-09T07:43:00.324Z,83.43
2019-05-09T07:45:29.956Z,83.69
2019-05-09T07:47:59.321Z,82.36
2019-05-09T07:50:28.780Z,85.66
2019-05-09T07:52:58.414Z,85.96
2019-05-09T07:55:27.838Z,86.75
2019-05-09T07:57:59.145Z,85.82
2019-05-09T08:00:33.441Z,83.45
2019-05-09T08:03:03.523Z,81.81
2019-05-09T08:05:32.839Z,80.63
2019-05-09T08:08:02.246Z,84.48
2019-05-09T08:10:33.344Z,80.45
2019-05-09T08:13:02.639Z,83.91
2019-05-09T08:15:31.999Z,81.11
2019-05-09T08:18:01.371Z,81.94
2019-05-09T08:20:30.768Z,83.20
2019-05-09T08:23:02.044Z,79.67
2019-05-09T08:25:31.174Z,78.99
2019-05-09T08:28:00.512Z,82.03
2019-05-09T08:30:35.681Z,84.20
2019-05-09T08:33:00.908Z,83.26
2019-05-09T08:35:30.346Z,82.64
2019-05-09T08:37:59.792Z,82.64
2019-05-09T08:40:29.265Z,81.52
2019-05-09T08:42:59.094Z,82.49
2019-05-09T08:45:31.473Z,82.50
2019-05-09T08:47:59.879Z,82.62
2019-05-09T08:50:38.681Z,84.57
2019-05-09T08:53:08.256Z,84.80
2019-05-09T08:55:38.483Z,85.10
2019-05-09T08:58:08.294Z,85.42
2019-05-09T09:00:39.123Z,85.74
2019-05-09T09:03:08.744Z,86.08
2019-05-09T09:05:38.422Z,84.78
2019-05-09T09:08:08.575Z,84.44
2019-05-09T09:10:38.723Z,83.88
2019-05-09T09:13:09.001Z,82.89
2019-05-09T09:18:09.943Z,83.63
2019-05-09T09:20:39.275Z,82.20
2019-05-09T09:23:09.224Z,82.31
2019-05-09T09:25:39.300Z,82.14
2019-05-09T09:28:09.142Z,83.80
2019-05-09T09:30:39.045Z,83.27
2019-05-09T09:33:13.154Z,83.16
2019-05-09T09:35:39.867Z,84.33
2019-05-09T09:38:09.608Z,84.48
2019-05-09T09:40:38.997Z,83.14
2019-05-09T09:43:09.387Z,84.08
2019-05-09T09:45:38.834Z,84.00
2019-05-09T09:48:09.266Z,86.37
2019-05-09T09:50:38.889Z,83.58
2019-05-09T09:53:09.113Z,84.11
2019-05-09T09:55:38.873Z,82.16
2019-05-09T09:58:08.513Z,81.05
2019-05-09T10:00:48.249Z,78.10
2019-05-09T10:03:18.676Z,79.37
2019-05-09T10:05:48.713Z,79.69
2019-05-09T10:08:18.549Z,79.52
2019-05-09T10:10:48.601Z,76.15
2019-05-09T10:13:18.690Z,79.36
2019-05-09T10:16:13.132Z,83.82
2019-05-09T10:18:46.665Z,85.21
2019-05-09T10:21:22.635Z,88.33
2019-05-09T10:23:51.987Z,86.96
2019-05-09T10:26:21.425Z,87.75
2019-05-09T10:28:50.832Z,86.17
2019-05-09T10:31:20.392Z,84.10
2019-05-09T10:33:49.793Z,85.24
2019-05-09T10:36:19.190Z,84.83
2019-05-09T10:38:48.546Z,88.06
2019-05-09T10:41:18.072Z,86.84
2019-05-09T10:44:08.979Z,84.84
2019-05-09T10:46:53.595Z,85.76
2019-05-09T10:49:18.810Z,85.00
2019-05-09T10:51:48.597Z,85.27
2019-05-09T10:54:18.639Z,83.13
2019-05-09T10:56:48.798Z,81.94
2019-05-09T10:59:18.499Z,80.97
2019-05-09T11:01:49.674Z,77.12
2019-05-09T11:04:19.299Z,76.32
2019-05-09T11:06:48.668Z,74.37
2019-05-09T11:09:18.479Z,73.03
2019-05-09T11:11:48.572Z,72.24
2019-05-09T11:14:32.193Z,70.98
2019-05-09T11:16:59.211Z,73.24
2019-05-09T11:19:20.464Z,75.64
2019-05-09T11:21:49.910Z,74.98
2019-05-09T11:24:19.373Z,73.27
2019-05-09T11:26:48.938Z,74.26
2019-05-09T11:29:18.816Z,72.27
2019-05-09T11:31:48.376Z,68.46
2019-05-09T11:34:18.826Z,71.21
2019-05-09T11:36:49.844Z,69.38
2019-05-09T11:39:35.235Z,70.26
2019-05-09T11:41:50.541Z,71.72
2019-05-09T11:44:20.213Z,66.75
2019-05-09T11:46:49.701Z,65.22
2019-05-09T11:49:19.179Z,64.50
2019-05-09T11:51:48.553Z,66.26
2019-05-09T11:54:19.475Z,68.33
2019-05-09T11:56:49.081Z,70.01
2019-05-09T11:59:19.027Z,68.62
2019-05-09T12:01:48.689Z,72.02
2019-05-09T12:04:18.893Z,70.94
2019-05-09T12:06:49.327Z,68.92
2019-05-09T12:09:18.906Z,68.18
2019-05-09T12:11:48.616Z,70.20
2019-05-09T12:14:17.981Z,67.91
2019-05-09T12:16:48.142Z,68.58
2019-05-09T12:19:18.140Z,72.23
2019-05-09T12:21:48.566Z,73.47
2019-05-09T12:24:18.518Z,72.06
2019-05-09T12:26:48.402Z,74.12
2019-05-09T12:29:19.538Z,72.85
2019-05-09T12:31:49.243Z,73.58
2019-05-09T12:34:19.535Z,72.01
2019-05-09T12:36:49.828Z,70.83
2019-05-09T12:39:19.503Z,72.09
2019-05-09T12:41:48.874Z,72.22
2019-05-09T12:44:18.597Z,72.04
2019-05-09T12:46:48.982Z,72.85
2019-05-09T12:49:19.181Z,74.77
2019-05-09T12:51:48.759Z,76.46
2019-05-09T12:54:19.065Z,77.24
2019-05-09T12:56:48.805Z,78.47
2019-05-09T12:59:18.892Z,80.60
2019-05-09T13:01:49.272Z,81.20
2019-05-09T13:04:19.207Z,81.83
2019-05-09T13:06:49.094Z,82.38
2019-05-09T13:09:18.677Z,81.48
2019-05-09T13:11:48.331Z,80.08
2019-05-09T13:14:19.244Z,80.04
2019-05-09T13:17:08.236Z,83.48
2019-05-09T13:19:40.945Z,84.89
2019-05-09T13:22:10.280Z,85.32
2019-05-09T13:24:39.580Z,87.99
2019-05-09T13:27:08.929Z,86.50
2019-05-09T13:29:38.402Z,86.03
2019-05-09T13:32:08.752Z,86.48
2019-05-09T13:34:38.592Z,89.41
2019-05-09T13:37:09.087Z,87.86
2019-05-09T13:39:39.734Z,87.92
2019-05-09T13:42:09.318Z,87.46
2019-05-09T13:44:41.456Z,86.95
2019-05-09T13:47:10.914Z,86.36
2019-05-09T13:49:40.708Z,87.23
2019-05-09T13:52:10.346Z,81.49
2019-05-09T13:54:39.807Z,79.73
2019-05-09T13:57:09.241Z,77.11
2019-05-09T13:59:38.602Z,71.10
2019-05-09T14:02:08.376Z,67.53
2019-05-09T14:04:39.466Z,64.84
2019-05-09T14:07:08.902Z,64.85
2019-05-09T14:09:38.719Z,61.30
2019-05-09T14:12:09.288Z,58.82
2019-05-09T14:14:39.596Z,67.93
2019-05-09T14:17:13.530Z,69.61
2019-05-09T14:19:45.911Z,70.08
2019-05-09T14:22:11.032Z,68.30
2019-05-09T14:24:40.569Z,67.27
2019-05-09T14:27:09.946Z,67.27
2019-05-09T14:29:39.409Z,66.23
2019-05-09T14:32:08.927Z,66.23
2019-05-09T14:34:42.366Z,62.73
2019-05-09T14:37:09.838Z,69.79
2019-05-09T14:39:54.542Z,69.79
2019-05-09T14:42:10.157Z,73.52
2019-05-09T14:44:39.633Z,74.07
2019-05-09T14:47:08.904Z,71.55
2019-05-09T14:49:43.339Z,73.80
2019-05-09T14:52:09.161Z,74.23
2019-05-09T14:54:39.290Z,73.29
2019-05-09T14:57:09.635Z,74.44
2019-05-09T14:59:39.421Z,79.60
2019-05-09T15:02:09.331Z,80.20
2019-05-09T15:04:38.888Z,79.56
2019-05-09T15:07:08.276Z,79.18
2019-05-09T15:09:37.729Z,81.01
2019-05-09T15:12:07.116Z,80.16
2019-05-09T15:14:38.346Z,82.51
2019-05-09T15:17:08.810Z,82.37
2019-05-09T15:19:38.767Z,83.81
2019-05-09T15:22:08.671Z,85.05
2019-05-09T15:24:38.931Z,87.71
2019-05-09T15:27:08.628Z,87.47
2019-05-09T15:29:39.096Z,88.03
2019-05-09T15:32:12.270Z,88.27
2019-05-09T15:34:39.997Z,89.56
2019-05-09T15:37:09.453Z,90.67
2019-05-09T15:39:38.795Z,93.55
2019-05-09T15:42:08.179Z,93.12
2019-05-09T15:44:37.835Z,92.55
2019-05-09T15:47:14.073Z,95.07
2019-05-09T15:49:43.347Z,95.13
2019-05-09T15:52:12.747Z,94.38
2019-05-09T15:54:42.251Z,94.10
2019-05-09T15:57:11.572Z,89.10
2019-05-09T15:59:40.977Z,85.29
2019-05-09T16:02:10.471Z,82.56
2019-05-09T16:04:40.420Z,81.07
2019-05-09T16:07:10.148Z,77.80
2019-05-09T16:09:39.792Z,80.33
2019-05-09T16:12:09.273Z,78.59
2019-05-09T16:14:38.742Z,82.17
2019-05-09T16:17:08.171Z,84.41
2019-05-09T16:19:37.943Z,82.02
2019-05-09T16:22:08.090Z,81.41
2019-05-09T16:24:38.142Z,81.17
2019-05-09T16:27:08.532Z,81.56
2019-05-09T16:29:38.470Z,80.81
2019-05-09T16:32:08.784Z,84.70
2019-05-09T16:34:38.815Z,83.97
2019-05-09T16:37:08.398Z,84.99
2019-05-09T16:39:38.009Z,82.92
2019-05-09T16:42:07.691Z,83.73
2019-05-09T16:44:37.726Z,85.03
2019-05-09T16:47:08.506Z,86.30
2019-05-09T16:49:38.657Z,89.61
2019-05-09T16:52:08.272Z,90.76
2019-05-09T16:54:40.411Z,91.04
2019-05-09T16:57:09.596Z,92.17
2019-05-09T16:59:38.975Z,93.33
2019-05-09T17:02:18.950Z,92.64
2019-05-09T17:04:39.983Z,92.84
2019-05-09T17:07:09.260Z,93.74
2019-05-09T17:09:42.708Z,93.83
2019-05-09T17:12:12.118Z,93.62
2019-05-09T17:14:41.552Z,92.19
2019-05-09T17:17:10.933Z,93.88
2019-05-09T17:19:40.270Z,92.87
2019-05-09T17:22:15.046Z,92.70
2019-05-09T17:24:48.227Z,91.32
2019-05-09T17:27:18.803Z,88.75
2019-05-09T17:29:48.207Z,89.37
2019-05-09T17:32:18.404Z,90.39
2019-05-09T17:34:48.032Z,90.66
2019-05-09T17:37:17.893Z,91.27
2019-05-09T17:39:47.339Z,91.68
2019-05-09T17:42:18.297Z,92.19
2019-05-09T17:44:48.779Z,92.15
2019-05-09T17:47:18.527Z,92.40
2019-05-09T17:49:48.302Z,94.03
2019-05-09T17:52:18.377Z,94.65
2019-05-09T17:54:48.656Z,95.75
2019-05-09T17:57:18.975Z,95.97
2019-05-09T17:59:49.001Z,96.66
2019-05-09T18:02:18.660Z,97.28
2019-05-09T18:04:48.285Z,96.87
2019-05-09T18:07:18.176Z,97.31
2019-05-09T18:09:48.409Z,97.65
2019-05-09T18:12:18.965Z,97.99
2019-05-09T18:14:48.568Z,98.32
2019-05-09T18:17:18.354Z,98.69
2019-05-09T18:19:47.690Z,99.09
2019-05-09T18:22:18.600Z,99.28
2019-05-09T18:24:48.415Z,99.28
2019-05-09T18:27:18.288Z,99.62
2019-05-09T18:29:47.620Z,99.49
2019-05-09T18:32:42.251Z,99.71
2019-05-09T18:35:17.302Z,100.00
2019-05-09T18:37:48.105Z,100.00
2019-05-09T18:40:18.365Z,100.00
2019-05-09T18:42:48.059Z,100.00
2019-05-09T18:45:18.688Z,100.00
2019-05-09T18:47:48.347Z,100.00
2019-05-09T18:50:18.095Z,100.00
2019-05-09T18:52:47.420Z,96.78
2019-05-09T18:55:17.513Z,96.16
2019-05-09T18:57:46.933Z,94.85
2019-05-09T19:00:20.313Z,93.85
2019-05-09T19:02:49.932Z,94.83
2019-05-09T19:05:20.100Z,96.50
2019-05-09T19:07:52.699Z,97.36
2019-05-09T19:10:22.297Z,98.53
2019-05-09T19:12:51.750Z,99.87
2019-05-09T19:15:36.574Z,100.00
2019-05-09T19:18:12.609Z,100.00
2019-05-09T19:20:47.156Z,100.00
2019-05-09T19:23:16.680Z,100.00
2019-05-09T19:25:46.108Z,100.00
2019-05-09T19:28:15.704Z,100.00
2019-05-09T19:30:45.242Z,100.00
2019-05-09T19:33:14.811Z,100.00
2019-05-09T19:35:44.172Z,100.00
2019-05-09T19:38:13.555Z,100.00
2019-05-09T19:40:43.073Z,100.00
2019-05-09T19:43:12.394Z,100.00
2019-05-09T19:45:41.745Z,100.00
2019-05-09T19:48:11.110Z,100.00
2019-05-09T19:50:40.468Z,100.00
2019-05-09T19:53:10.404Z,100.00
2019-05-09T19:55:40.231Z,100.00
2019-05-09T19:58:09.574Z,100.00
2019-05-09T20:00:39.087Z,100.00
2019-05-09T20:03:08.715Z,100.00
2019-05-09T20:05:38.134Z,100.00
2019-05-09T20:08:07.694Z,100.00
2019-05-09T20:10:54.689Z,100.00
2019-05-09T20:13:34.410Z,100.00
2019-05-09T20:16:03.670Z,100.00
2019-05-09T20:18:32.931Z,100.00
2019-05-09T20:21:02.355Z,100.00
2019-05-09T20:23:31.956Z,100.00
2019-05-09T20:26:01.389Z,100.00
2019-05-09T20:28:30.727Z,100.00
2019-05-09T20:31:00.173Z,100.00
2019-05-09T20:33:29.494Z,100.00
2019-05-09T20:35:58.801Z,100.00
2019-05-09T20:38:28.390Z,100.00
2019-05-09T20:40:58.007Z,100.00
2019-05-09T20:43:27.568Z,100.00
2019-05-09T20:45:57.134Z,100.00
2019-05-09T20:48:26.713Z,100.00
2019-05-09T20:50:56.204Z,100.00
2019-05-09T20:53:25.706Z,100.00
2019-05-09T20:55:56.111Z,100.00
2019-05-09T20:58:25.540Z,100.00
2019-05-09T21:00:55.158Z,100.00
2019-05-09T21:03:24.749Z,100.00
2019-05-09T21:05:54.589Z,100.00
2019-05-09T21:08:24.082Z,100.00
2019-05-09T21:10:53.622Z,100.00
2019-05-09T21:13:23.259Z,100.00
2019-05-09T21:15:52.713Z,100.00
2019-05-09T21:18:22.282Z,100.00
2019-05-09T21:20:51.880Z,100.00
2019-05-09T21:23:24.842Z,100.00
2019-05-09T21:25:52.612Z,100.00
2019-05-09T21:28:22.239Z,100.00
2019-05-09T21:30:51.643Z,100.00
2019-05-09T21:33:21.185Z,100.00
2019-05-09T21:35:50.574Z,100.00
2019-05-09T21:38:19.943Z,100.00
2019-05-09T21:40:49.360Z,100.00
2019-05-09T21:43:18.889Z,100.00
2019-05-09T21:45:48.301Z,100.00
2019-05-09T21:48:17.720Z,100.00
2019-05-09T21:50:47.026Z,100.00
2019-05-09T21:53:16.480Z,100.00
2019-05-09T21:55:45.856Z,100.00
2019-05-09T21:58:15.216Z,100.00
2019-05-09T22:00:47.386Z,100.00
2019-05-09T22:03:17.279Z,100.00
2019-05-09T22:05:46.635Z,100.00
2019-05-09T22:08:16.120Z,100.00
2019-05-09T22:10:45.521Z,100.00
2019-05-09T22:13:15.063Z,100.00
2019-05-09T22:15:44.577Z,100.00
2019-05-09T22:18:13.923Z,100.00
2019-05-09T22:20:43.342Z,100.00
2019-05-09T22:23:12.668Z,100.00
2019-05-09T22:25:42.044Z,100.00
2019-05-09T22:28:11.345Z,100.00
2019-05-09T22:30:40.659Z,100.00
2019-05-09T22:33:09.938Z,100.00
2019-05-09T22:35:39.149Z,100.00
2019-05-09T22:38:08.606Z,100.00
2019-05-09T22:40:37.919Z,100.00
2019-05-09T22:43:07.265Z,100.00
2019-05-09T22:45:36.697Z,100.00
2019-05-09T22:48:05.981Z,100.00
2019-05-09T22:50:35.473Z,100.00
2019-05-09T22:53:05.104Z,100.00
2019-05-09T22:55:34.515Z,100.00
2019-05-09T22:58:04.059Z,100.00
2019-05-09T23:00:33.415Z,100.00
2019-05-09T23:03:02.772Z,100.00
2019-05-09T23:05:32.207Z,100.00
2019-05-09T23:08:01.534Z,100.00
2019-05-09T23:10:30.869Z,100.00
2019-05-09T23:13:00.353Z,100.00
2019-05-09T23:15:29.723Z,100.00
2019-05-09T23:17:59.167Z,100.00
2019-05-09T23:20:46.048Z,100.00
2019-05-09T23:23:40.291Z,100.00
2019-05-09T23:26:10.739Z,100.00
2019-05-09T23:28:40.102Z,100.00
2019-05-09T23:31:13.292Z,100.00
2019-05-09T23:33:43.080Z,100.00
2019-05-09T23:36:12.423Z,100.00
2019-05-09T23:38:59.316Z,100.00
2019-05-09T23:41:28.753Z,100.00
2019-05-09T23:43:58.106Z,100.00
2019-05-09T23:46:27.463Z,100.00
2019-05-09T23:48:57.006Z,100.00
2019-05-09T23:51:44.723Z,100.00
2019-05-09T23:54:45.396Z,100.00
2019-05-09T23:57:20.660Z,100.00
